Constantia, New York
Current Conditions -  °F | °C
As of 6:06 PM on Saturday 25 Oct 2014 (Local Time) from KSYR Reporting Station
Broken Clouds Broken Clouds  
Wind Chill: 60°   Ceiling: 4000
Heat Index: 60°   Visibility: 10mi
Dew Point: 52°   Wind: 16mph
Humidity: 75%   Direction: 320°NW
Pressure: 29.56"   Gusts: 23mph
Location:  43.25°N, 76°W
Report Text: KSYR 252206Z 32014G20KT 10SM BKN040 BKN050 16/11 A2956 RMK AO2 TSE05 TS MOV SE CB DSNT NE AND E T01560111
Loading
Personal Weather Stations






























Interactive Weather Map
Tropical Storm Tracking
New forecast layout! Learn more

10-Day Weather Forecast

Advertisements
Track Severe Weather on mobile